Terminal Aerodrome Forecast
Issued by NWS

Current Version | Previous Version | Text Only | Print | Product List | Glossary On
Versions: 1 2 3 4 5 6 7 8 9 10 11 12 13 14 15 16 17 18 19 20 21 22 23 24 25 26 27 28 29 30 31 32 33 34 35 36 37 38 39 40 41 42 43 44 45 46 47 48
000
FTUS45 KSLC 221409 AAB
TAFEVW
TAF AMD
KEVW 221409Z 2214/2312 22007KT P6SM SCT005 BKN010
      TEMPO 2214/2216 1SM BR OVC004
     FM221800 25011G17KT 6SM -SHSN SCT020 BKN050
     FM230200 34007KT P6SM SCT040 BKN120=

USA.gov is the U.S. government's official web portal to all federal, state and local government web resources and services.